sensor_id;sensor_type;location;lat;lon;timestamp;pressure;altitude;pressure_sealevel;temperature;humidity
56894;BME280;43392;50.078;13.704;2023-08-06T00:00:07;96211.00;;;15.37;98.64
56894;BME280;43392;50.078;13.704;2023-08-06T00:02:34;96204.34;;;15.34;98.85
56894;BME280;43392;50.078;13.704;2023-08-06T00:05:01;96204.34;;;15.34;99.35
56894;BME280;43392;50.078;13.704;2023-08-06T00:07:28;96205.25;;;15.38;99.05
56894;BME280;43392;50.078;13.704;2023-08-06T00:09:56;96191.91;;;15.42;98.58
56894;BME280;43392;50.078;13.704;2023-08-06T00:12:22;96182.69;;;15.43;98.38
56894;BME280;43392;50.078;13.704;2023-08-06T00:14:50;96179.19;;;15.42;98.45
56894;BME280;43392;50.078;13.704;2023-08-06T00:17:16;96173.47;;;15.44;98.64
56894;BME280;43392;50.078;13.704;2023-08-06T00:19:43;96167.44;;;15.47;98.69
56894;BME280;43392;50.078;13.704;2023-08-06T00:22:10;96156.00;;;15.50;97.93
56894;BME280;43392;50.078;13.704;2023-08-06T00:24:36;96158.81;;;15.53;98.32
56894;BME280;43392;50.078;13.704;2023-08-06T00:27:05;96144.22;;;15.54;97.86
56894;BME280;43392;50.078;13.704;2023-08-06T00:29:31;96154.38;;;15.57;97.63
56894;BME280;43392;50.078;13.704;2023-08-06T00:31:58;96157.84;;;15.58;97.92
56894;BME280;43392;50.078;13.704;2023-08-06T00:34:25;96155.94;;;15.58;97.83
56894;BME280;43392;50.078;13.704;2023-08-06T00:36:51;96157.06;;;15.57;97.35
56894;BME280;43392;50.078;13.704;2023-08-06T00:39:18;96155.81;;;15.55;97.73
56894;BME280;43392;50.078;13.704;2023-08-06T00:41:45;96139.91;;;15.53;97.82
56894;BME280;43392;50.078;13.704;2023-08-06T00:44:13;96136.91;;;15.55;97.92
56894;BME280;43392;50.078;13.704;2023-08-06T00:46:40;96143.56;;;15.57;97.43
56894;BME280;43392;50.078;13.704;2023-08-06T00:49:07;96143.56;;;15.57;97.89
56894;BME280;43392;50.078;13.704;2023-08-06T00:51:34;96149.72;;;15.58;97.53
56894;BME280;43392;50.078;13.704;2023-08-06T00:54:01;96142.94;;;15.52;97.82
56894;BME280;43392;50.078;13.704;2023-08-06T00:56:28;96135.50;;;15.40;97.81
56894;BME280;43392;50.078;13.704;2023-08-06T00:58:55;96143.81;;;15.35;98.76
56894;BME280;43392;50.078;13.704;2023-08-06T01:01:23;96141.41;;;15.34;98.57
56894;BME280;43392;50.078;13.704;2023-08-06T01:03:50;96137.13;;;15.33;99.23
56894;BME280;43392;50.078;13.704;2023-08-06T01:06:19;96141.13;;;15.26;98.75
56894;BME280;43392;50.078;13.704;2023-08-06T01:08:56;96138.13;;;15.19;99.13
56894;BME280;43392;50.078;13.704;2023-08-06T01:11:28;96139.91;;;15.15;99.73
56894;BME280;43392;50.078;13.704;2023-08-06T01:14:01;96138.00;;;15.16;99.75
56894;BME280;43392;50.078;13.704;2023-08-06T01:16:30;96137.66;;;15.17;99.46
56894;BME280;43392;50.078;13.704;2023-08-06T01:18:58;96134.34;;;15.20;99.85
56894;BME280;43392;50.078;13.704;2023-08-06T01:21:26;96133.66;;;15.23;99.79
56894;BME280;43392;50.078;13.704;2023-08-06T01:23:52;96140.03;;;15.27;99.69
56894;BME280;43392;50.078;13.704;2023-08-06T01:26:24;96121.56;;;15.29;99.19
56894;BME280;43392;50.078;13.704;2023-08-06T01:31:39;96140.63;;;15.33;99.38
56894;BME280;43392;50.078;13.704;2023-08-06T01:34:11;96144.63;;;15.27;99.33
56894;BME280;43392;50.078;13.704;2023-08-06T01:36:41;96136.38;;;15.23;99.89
56894;BME280;43392;50.078;13.704;2023-08-06T01:39:08;96127.31;;;15.28;100.00
56894;BME280;43392;50.078;13.704;2023-08-06T01:41:35;96135.22;;;15.33;99.29
56894;BME280;43392;50.078;13.704;2023-08-06T01:44:02;96138.41;;;15.35;99.24
56894;BME280;43392;50.078;13.704;2023-08-06T01:46:28;96130.66;;;15.25;99.24
56894;BME280;43392;50.078;13.704;2023-08-06T01:48:55;96131.81;;;15.15;99.99
56894;BME280;43392;50.078;13.704;2023-08-06T01:51:21;96126.41;;;15.15;99.95
56894;BME280;43392;50.078;13.704;2023-08-06T01:53:49;96129.91;;;15.16;100.00
56894;BME280;43392;50.078;13.704;2023-08-06T01:56:16;96112.75;;;15.12;100.00
56894;BME280;43392;50.078;13.704;2023-08-06T01:58:42;96129.28;;;15.10;100.00
56894;BME280;43392;50.078;13.704;2023-08-06T02:01:09;96131.19;;;15.10;100.00
56894;BME280;43392;50.078;13.704;2023-08-06T02:03:36;96120.06;;;15.11;100.00
56894;BME280;43392;50.078;13.704;2023-08-06T02:06:02;96124.81;;;15.14;100.00
56894;BME280;43392;50.078;13.704;2023-08-06T02:08:29;96122.56;;;15.16;100.00
56894;BME280;43392;50.078;13.704;2023-08-06T02:10:57;96124.69;;;15.11;100.00
56894;BME280;43392;50.078;13.704;2023-08-06T02:13:24;96119.28;;;15.11;100.00
56894;BME280;43392;50.078;13.704;2023-08-06T02:15:51;96115.44;;;15.12;100.00
56894;BME280;43392;50.078;13.704;2023-08-06T02:18:17;96111.00;;;15.16;100.00
56894;BME280;43392;50.078;13.704;2023-08-06T02:20:54;96100.03;;;15.12;100.00
56894;BME280;43392;50.078;13.704;2023-08-06T02:23:21;96105.78;;;15.11;100.00
56894;BME280;43392;50.078;13.704;2023-08-06T02:25:48;96102.63;;;15.09;100.00
56894;BME280;43392;50.078;13.704;2023-08-06T02:28:16;96109.91;;;15.08;100.00
56894;BME280;43392;50.078;13.704;2023-08-06T02:30:49;96105.16;;;15.05;100.00
56894;BME280;43392;50.078;13.704;2023-08-06T02:33:16;96102.13;;;15.07;100.00
56894;BME280;43392;50.078;13.704;2023-08-06T02:35:43;96099.91;;;15.09;100.00
56894;BME280;43392;50.078;13.704;2023-08-06T02:38:09;96097.00;;;15.14;100.00
56894;BME280;43392;50.078;13.704;2023-08-06T02:40:36;96095.72;;;15.20;100.00
56894;BME280;43392;50.078;13.704;2023-08-06T02:43:02;96086.31;;;15.26;100.00
56894;BME280;43392;50.078;13.704;2023-08-06T02:45:30;96083.41;;;15.31;99.80
56894;BME280;43392;50.078;13.704;2023-08-06T02:47:57;96077.38;;;15.34;100.00
56894;BME280;43392;50.078;13.704;2023-08-06T02:50:24;96070.97;;;15.39;99.80
56894;BME280;43392;50.078;13.704;2023-08-06T02:52:50;96063.81;;;15.43;99.78
56894;BME280;43392;50.078;13.704;2023-08-06T02:55:17;96066.19;;;15.44;99.08
56894;BME280;43392;50.078;13.704;2023-08-06T02:57:43;96072.09;;;15.46;99.01
56894;BME280;43392;50.078;13.704;2023-08-06T03:00:10;96065.56;;;15.47;98.65
56894;BME280;43392;50.078;13.704;2023-08-06T03:02:39;96071.09;;;15.51;99.48
56894;BME280;43392;50.078;13.704;2023-08-06T03:05:06;96061.44;;;15.50;98.95
56894;BME280;43392;50.078;13.704;2023-08-06T03:07:32;96054.09;;;15.50;98.45
56894;BME280;43392;50.078;13.704;2023-08-06T03:10:01;96050.16;;;15.48;98.49
56894;BME280;43392;50.078;13.704;2023-08-06T03:12:27;96052.19;;;15.51;98.39
56894;BME280;43392;50.078;13.704;2023-08-06T03:14:54;96046.47;;;15.52;98.53
56894;BME280;43392;50.078;13.704;2023-08-06T03:17:21;96050.75;;;15.53;98.08
56894;BME280;43392;50.078;13.704;2023-08-06T03:19:49;96044.22;;;15.54;98.19
56894;BME280;43392;50.078;13.704;2023-08-06T03:22:15;96040.72;;;15.54;98.21
56894;BME280;43392;50.078;13.704;2023-08-06T03:24:42;96039.94;;;15.53;98.11
56894;BME280;43392;50.078;13.704;2023-08-06T03:27:09;96041.38;;;15.51;97.69
56894;BME280;43392;50.078;13.704;2023-08-06T03:29:35;96035.97;;;15.51;97.91
56894;BME280;43392;50.078;13.704;2023-08-06T03:32:02;96022.47;;;15.51;98.03
56894;BME280;43392;50.078;13.704;2023-08-06T03:34:29;96022.81;;;15.49;97.60
56894;BME280;43392;50.078;13.704;2023-08-06T03:36:57;96019.31;;;15.49;97.94
56894;BME280;43392;50.078;13.704;2023-08-06T03:39:23;96020.44;;;15.48;98.00
56894;BME280;43392;50.078;13.704;2023-08-06T03:41:50;96015.03;;;15.48;97.67
56894;BME280;43392;50.078;13.704;2023-08-06T03:44:16;96011.53;;;15.47;97.85
56894;BME280;43392;50.078;13.704;2023-08-06T03:46:43;96009.94;;;15.46;97.71
56894;BME280;43392;50.078;13.704;2023-08-06T03:49:09;96005.69;;;15.45;97.63
56894;BME280;43392;50.078;13.704;2023-08-06T03:51:36;96007.84;;;15.43;97.32
56894;BME280;43392;50.078;13.704;2023-08-06T03:54:04;96005.50;;;15.42;97.89
56894;BME280;43392;50.078;13.704;2023-08-06T03:56:31;96000.91;;;15.42;97.80
56894;BME280;43392;50.078;13.704;2023-08-06T03:58:57;96005.84;;;15.40;97.55
56894;BME280;43392;50.078;13.704;2023-08-06T04:01:24;96004.69;;;15.41;97.72
56894;BME280;43392;50.078;13.704;2023-08-06T04:03:50;95999.00;;;15.43;97.77
56894;BME280;43392;50.078;13.704;2023-08-06T04:06:17;96004.69;;;15.41;97.80
56894;BME280;43392;50.078;13.704;2023-08-06T04:08:43;95997.72;;;15.40;97.88
56894;BME280;43392;50.078;13.704;2023-08-06T04:11:11;95998.50;;;15.41;97.92
56894;BME280;43392;50.078;13.704;2023-08-06T04:13:38;95993.91;;;15.41;97.43
56894;BME280;43392;50.078;13.704;2023-08-06T04:16:05;95989.63;;;15.40;97.71
56894;BME280;43392;50.078;13.704;2023-08-06T04:18:31;95996.59;;;15.41;97.52
56894;BME280;43392;50.078;13.704;2023-08-06T04:20:58;95995.81;;;15.41;97.58
56894;BME280;43392;50.078;13.704;2023-08-06T04:23:25;95993.91;;;15.41;97.74
56894;BME280;43392;50.078;13.704;2023-08-06T04:25:51;95990.88;;;15.43;97.16
56894;BME280;43392;50.078;13.704;2023-08-06T04:28:19;95987.03;;;15.44;96.99
56894;BME280;43392;50.078;13.704;2023-08-06T04:30:46;95993.25;;;15.44;97.02
56894;BME280;43392;50.078;13.704;2023-08-06T04:33:13;95985.13;;;15.44;96.74
56894;BME280;43392;50.078;13.704;2023-08-06T04:35:39;95985.97;;;15.45;96.69
56894;BME280;43392;50.078;13.704;2023-08-06T04:38:06;95973.25;;;15.45;96.95
56894;BME280;43392;50.078;13.704;2023-08-06T04:40:33;95970.03;;;15.43;96.75
56894;BME280;43392;50.078;13.704;2023-08-06T04:42:59;95974.34;;;15.44;97.01
56894;BME280;43392;50.078;13.704;2023-08-06T04:45:28;95966.22;;;15.44;97.10
56894;BME280;43392;50.078;13.704;2023-08-06T04:47:54;95965.44;;;15.44;97.57
56894;BME280;43392;50.078;13.704;2023-08-06T04:50:21;95970.22;;;15.47;97.89
56894;BME280;43392;50.078;13.704;2023-08-06T04:52:47;95980.69;;;15.48;97.47
56894;BME280;43392;50.078;13.704;2023-08-06T04:55:14;95968.41;;;15.51;97.34
56894;BME280;43392;50.078;13.704;2023-08-06T04:57:41;95969.22;;;15.51;97.73
56894;BME280;43392;50.078;13.704;2023-08-06T05:00:08;95967.78;;;15.54;97.91
56894;BME280;43392;50.078;13.704;2023-08-06T05:02:36;95972.84;;;15.55;97.69
56894;BME280;43392;50.078;13.704;2023-08-06T05:05:04;95972.06;;;15.55;97.71
56894;BME280;43392;50.078;13.704;2023-08-06T05:07:31;95965.22;;;15.57;97.34
56894;BME280;43392;50.078;13.704;2023-08-06T05:09:57;95964.88;;;15.59;97.67
56894;BME280;43392;50.078;13.704;2023-08-06T05:12:24;95955.66;;;15.60;96.95
56894;BME280;43392;50.078;13.704;2023-08-06T05:14:50;95964.97;;;15.62;96.79
56894;BME280;43392;50.078;13.704;2023-08-06T05:17:17;95959.13;;;15.60;96.78
56894;BME280;43392;50.078;13.704;2023-08-06T05:19:45;95970.38;;;15.62;96.69
56894;BME280;43392;50.078;13.704;2023-08-06T05:22:11;95970.06;;;15.64;97.08
56894;BME280;43392;50.078;13.704;2023-08-06T05:24:38;95967.03;;;15.65;97.03
56894;BME280;43392;50.078;13.704;2023-08-06T05:27:05;95964.78;;;15.67;97.02
56894;BME280;43392;50.078;13.704;2023-08-06T05:29:32;95960.16;;;15.68;97.29
56894;BME280;43392;50.078;13.704;2023-08-06T05:31:58;95957.66;;;15.63;97.14
56894;BME280;43392;50.078;13.704;2023-08-06T05:34:25;95956.63;;;15.55;97.05
56894;BME280;43392;50.078;13.704;2023-08-06T05:36:53;95950.97;;;15.48;96.78
56894;BME280;43392;50.078;13.704;2023-08-06T05:39:19;95945.72;;;15.43;97.35
56894;BME280;43392;50.078;13.704;2023-08-06T05:41:46;95944.16;;;15.42;97.35
56894;BME280;43392;50.078;13.704;2023-08-06T05:44:12;95946.59;;;15.35;97.45
56894;BME280;43392;50.078;13.704;2023-08-06T05:46:40;95951.22;;;15.35;97.19
56894;BME280;43392;50.078;13.704;2023-08-06T05:49:06;95941.84;;;15.32;97.48
56894;BME280;43392;50.078;13.704;2023-08-06T05:51:33;95937.91;;;15.29;97.90
56894;BME280;43392;50.078;13.704;2023-08-06T05:54:01;95943.44;;;15.33;97.74
56894;BME280;43392;50.078;13.704;2023-08-06T05:56:28;95942.75;;;15.36;97.42
56894;BME280;43392;50.078;13.704;2023-08-06T05:58:55;95937.16;;;15.41;97.24
56894;BME280;43392;50.078;13.704;2023-08-06T06:01:22;95934.81;;;15.40;97.36
56894;BME280;43392;50.078;13.704;2023-08-06T06:03:48;95932.63;;;15.33;97.06
56894;BME280;43392;50.078;13.704;2023-08-06T06:06:15;95926.94;;;15.26;97.45
56894;BME280;43392;50.078;13.704;2023-08-06T06:08:44;95933.22;;;15.18;97.40
56894;BME280;43392;50.078;13.704;2023-08-06T06:11:12;95934.97;;;15.14;97.86
56894;BME280;43392;50.078;13.704;2023-08-06T06:13:38;95921.81;;;15.12;97.85
56894;BME280;43392;50.078;13.704;2023-08-06T06:16:05;95924.19;;;15.14;98.00
56894;BME280;43392;50.078;13.704;2023-08-06T06:18:32;95931.63;;;15.17;98.02
56894;BME280;43392;50.078;13.704;2023-08-06T06:20:58;95930.25;;;15.11;97.73
56894;BME280;43392;50.078;13.704;2023-08-06T06:23:25;95927.88;;;15.09;98.08
56894;BME280;43392;50.078;13.704;2023-08-06T06:25:51;95928.66;;;15.10;98.23
56894;BME280;43392;50.078;13.704;2023-08-06T06:28:19;95929.00;;;15.08;98.19
56894;BME280;43392;50.078;13.704;2023-08-06T06:30:46;95925.19;;;15.09;98.63
56894;BME280;43392;50.078;13.704;2023-08-06T06:33:13;95931.56;;;15.05;98.66
56894;BME280;43392;50.078;13.704;2023-08-06T06:35:39;95928.41;;;15.03;99.23
56894;BME280;43392;50.078;13.704;2023-08-06T06:38:06;95926.50;;;15.03;99.37
56894;BME280;43392;50.078;13.704;2023-08-06T06:40:32;95929.50;;;15.02;99.08
56894;BME280;43392;50.078;13.704;2023-08-06T06:42:59;95937.09;;;15.08;98.73
56894;BME280;43392;50.078;13.704;2023-08-06T06:45:27;95930.53;;;15.18;98.36
56894;BME280;43392;50.078;13.704;2023-08-06T06:47:54;95937.50;;;15.19;97.64
56894;BME280;43392;50.078;13.704;2023-08-06T06:50:20;95932.78;;;15.16;97.86
56894;BME280;43392;50.078;13.704;2023-08-06T06:52:47;95937.69;;;15.14;97.48
56894;BME280;43392;50.078;13.704;2023-08-06T06:55:13;95935.66;;;15.11;97.49
56894;BME280;43392;50.078;13.704;2023-08-06T06:57:40;95940.59;;;15.09;97.54
56894;BME280;43392;50.078;13.704;2023-08-06T07:00:07;95942.38;;;15.05;97.25
56894;BME280;43392;50.078;13.704;2023-08-06T07:02:35;95949.34;;;15.06;97.43
56894;BME280;43392;50.078;13.704;2023-08-06T07:05:02;95935.84;;;15.06;97.48
56894;BME280;43392;50.078;13.704;2023-08-06T07:07:29;95939.34;;;15.06;97.39
56894;BME280;43392;50.078;13.704;2023-08-06T07:09:55;95936.50;;;15.03;97.69
56894;BME280;43392;50.078;13.704;2023-08-06T07:12:22;95936.50;;;15.03;98.05
56894;BME280;43392;50.078;13.704;2023-08-06T07:14:49;95940.13;;;15.07;97.76
56894;BME280;43392;50.078;13.704;2023-08-06T07:17:15;95941.63;;;15.16;97.85
56894;BME280;43392;50.078;13.704;2023-08-06T07:19:43;95942.38;;;15.25;97.27
56894;BME280;43392;50.078;13.704;2023-08-06T07:22:10;95938.69;;;15.30;96.08
56894;BME280;43392;50.078;13.704;2023-08-06T07:24:36;95936.78;;;15.31;95.50
56894;BME280;43392;50.078;13.704;2023-08-06T07:27:04;95933.09;;;15.35;95.40
56894;BME280;43392;50.078;13.704;2023-08-06T07:29:30;95935.25;;;15.42;95.20
56894;BME280;43392;50.078;13.704;2023-08-06T07:31:57;95937.00;;;15.46;94.86
56894;BME280;43392;50.078;13.704;2023-08-06T07:34:24;95939.22;;;15.44;93.86
56894;BME280;43392;50.078;13.704;2023-08-06T07:36:52;95929.72;;;15.38;93.53
56894;BME280;43392;50.078;13.704;2023-08-06T07:39:18;95933.59;;;15.28;93.67
56894;BME280;43392;50.078;13.704;2023-08-06T07:41:45;95926.94;;;15.26;93.88
56894;BME280;43392;50.078;13.704;2023-08-06T07:44:12;95931.03;;;15.32;94.09
56894;BME280;43392;50.078;13.704;2023-08-06T07:46:38;95935.13;;;15.38;94.29
56894;BME280;43392;50.078;13.704;2023-08-06T07:49:05;95933.88;;;15.36;93.25
56894;BME280;43392;50.078;13.704;2023-08-06T07:51:31;95930.25;;;15.32;93.47
56894;BME280;43392;50.078;13.704;2023-08-06T07:53:59;95925.19;;;15.30;93.23
56894;BME280;43392;50.078;13.704;2023-08-06T07:56:26;95929.44;;;15.31;93.13
56894;BME280;43392;50.078;13.704;2023-08-06T07:58:52;95929.13;;;15.33;92.59
56894;BME280;43392;50.078;13.704;2023-08-06T08:01:19;95930.59;;;15.30;92.64
56894;BME280;43392;50.078;13.704;2023-08-06T08:03:46;95917.66;;;15.36;92.37
56894;BME280;43392;50.078;13.704;2023-08-06T08:06:12;95927.34;;;15.37;92.43
56894;BME280;43392;50.078;13.704;2023-08-06T08:08:39;95920.94;;;15.41;92.10
56894;BME280;43392;50.078;13.704;2023-08-06T08:11:07;95909.50;;;15.44;91.64
56894;BME280;43392;50.078;13.704;2023-08-06T08:13:34;95907.44;;;15.41;91.26
56894;BME280;43392;50.078;13.704;2023-08-06T08:16:00;95903.50;;;15.39;91.68
56894;BME280;43392;50.078;13.704;2023-08-06T08:18:27;95905.19;;;15.43;91.13
56894;BME280;43392;50.078;13.704;2023-08-06T08:20:55;95889.16;;;15.47;90.99
56894;BME280;43392;50.078;13.704;2023-08-06T08:23:21;95899.09;;;15.55;90.33
56894;BME280;43392;50.078;13.704;2023-08-06T08:25:48;95893.16;;;15.61;90.31
56894;BME280;43392;50.078;13.704;2023-08-06T08:28:16;95892.81;;;15.63;89.77
56894;BME280;43392;50.078;13.704;2023-08-06T08:30:42;95884.25;;;15.61;89.06
56894;BME280;43392;50.078;13.704;2023-08-06T08:33:09;95895.19;;;15.64;89.33
56894;BME280;43392;50.078;13.704;2023-08-06T08:35:36;95892.41;;;15.73;89.52
56894;BME280;43392;50.078;13.704;2023-08-06T08:38:03;95896.47;;;15.79;88.87
56894;BME280;43392;50.078;13.704;2023-08-06T08:40:32;95896.13;;;15.80;88.17
56894;BME280;43392;50.078;13.704;2023-08-06T08:42:59;95899.94;;;15.79;88.66
56894;BME280;43392;50.078;13.704;2023-08-06T08:45:29;95900.53;;;15.85;88.45
56894;BME280;43392;50.078;13.704;2023-08-06T08:47:56;95890.72;;;15.80;87.95
56894;BME280;43392;50.078;13.704;2023-08-06T08:50:22;95900.09;;;15.83;87.62
56894;BME280;43392;50.078;13.704;2023-08-06T08:52:50;95899.44;;;15.86;88.27
56894;BME280;43392;50.078;13.704;2023-08-06T08:55:17;95908.44;;;15.90;88.63
56894;BME280;43392;50.078;13.704;2023-08-06T08:57:46;95900.22;;;15.99;89.15
56894;BME280;43392;50.078;13.704;2023-08-06T09:00:13;95900.34;;;16.02;88.27
56894;BME280;43392;50.078;13.704;2023-08-06T09:02:41;95899.09;;;16.00;87.96
56894;BME280;43392;50.078;13.704;2023-08-06T09:05:09;95891.66;;;15.97;87.46
56894;BME280;43392;50.078;13.704;2023-08-06T09:07:41;95891.13;;;16.03;88.54
56894;BME280;43392;50.078;13.704;2023-08-06T09:10:10;95893.72;;;16.12;88.44
56894;BME280;43392;50.078;13.704;2023-08-06T09:12:38;95891.16;;;16.15;87.27
56894;BME280;43392;50.078;13.704;2023-08-06T09:15:06;95885.38;;;16.17;86.45
56894;BME280;43392;50.078;13.704;2023-08-06T09:17:33;95896.09;;;16.25;86.54
56894;BME280;43392;50.078;13.704;2023-08-06T09:20:10;95888.22;;;16.32;86.75
56894;BME280;43392;50.078;13.704;2023-08-06T09:22:37;95889.56;;;16.38;85.87
56894;BME280;43392;50.078;13.704;2023-08-06T09:25:04;95889.47;;;16.35;86.46
56894;BME280;43392;50.078;13.704;2023-08-06T09:27:35;95884.28;;;16.42;86.69
56894;BME280;43392;50.078;13.704;2023-08-06T09:30:02;95884.81;;;16.35;86.11
56894;BME280;43392;50.078;13.704;2023-08-06T09:32:44;95888.22;;;16.32;86.58
56894;BME280;43392;50.078;13.704;2023-08-06T09:35:16;95879.09;;;16.37;86.09
56894;BME280;43392;50.078;13.704;2023-08-06T09:37:43;95884.59;;;16.40;86.12
56894;BME280;43392;50.078;13.704;2023-08-06T09:40:24;95879.88;;;16.37;85.36
56894;BME280;43392;50.078;13.704;2023-08-06T09:42:51;95881.81;;;16.37;85.95
56894;BME280;43392;50.078;13.704;2023-08-06T09:45:18;95878.09;;;16.41;85.67
56894;BME280;43392;50.078;13.704;2023-08-06T09:47:47;95876.50;;;16.40;85.70
56894;BME280;43392;50.078;13.704;2023-08-06T09:50:16;95873.00;;;16.40;86.00
56894;BME280;43392;50.078;13.704;2023-08-06T09:52:43;95871.75;;;16.37;86.25
56894;BME280;43392;50.078;13.704;2023-08-06T09:55:12;95865.00;;;16.43;86.60
56894;BME280;43392;50.078;13.704;2023-08-06T09:57:40;95866.47;;;16.41;86.10
56894;BME280;43392;50.078;13.704;2023-08-06T10:00:08;95865.13;;;16.35;87.16
56894;BME280;43392;50.078;13.704;2023-08-06T10:02:36;95850.66;;;16.43;86.76
56894;BME280;43392;50.078;13.704;2023-08-06T10:05:04;95856.53;;;16.45;86.37
56894;BME280;43392;50.078;13.704;2023-08-06T10:07:33;95855.41;;;16.46;86.48
56894;BME280;43392;50.078;13.704;2023-08-06T10:10:00;95849.13;;;16.66;85.84
56894;BME280;43392;50.078;13.704;2023-08-06T10:12:30;95854.41;;;16.75;85.29
56894;BME280;43392;50.078;13.704;2023-08-06T10:15:00;95851.69;;;16.75;84.78
56894;BME280;43392;50.078;13.704;2023-08-06T10:17:30;95852.59;;;16.67;84.64
56894;BME280;43392;50.078;13.704;2023-08-06T10:19:58;95844.16;;;16.56;84.12
56894;BME280;43392;50.078;13.704;2023-08-06T10:22:25;95848.00;;;16.55;84.31
56894;BME280;43392;50.078;13.704;2023-08-06T10:24:55;95843.13;;;16.48;83.87
56894;BME280;43392;50.078;13.704;2023-08-06T10:27:27;95846.72;;;16.40;84.13
56894;BME280;43392;50.078;13.704;2023-08-06T10:29:54;95853.59;;;16.38;84.04
56894;BME280;43392;50.078;13.704;2023-08-06T10:32:21;95835.00;;;16.36;83.98
56894;BME280;43392;50.078;13.704;2023-08-06T10:34:55;95842.34;;;16.36;84.31
56894;BME280;43392;50.078;13.704;2023-08-06T10:37:23;95838.59;;;16.40;84.53
56894;BME280;43392;50.078;13.704;2023-08-06T10:39:50;95830.63;;;16.44;84.12
56894;BME280;43392;50.078;13.704;2023-08-06T10:42:22;95828.00;;;16.47;84.49
56894;BME280;43392;50.078;13.704;2023-08-06T10:45:11;95833.44;;;16.59;83.83
56894;BME280;43392;50.078;13.704;2023-08-06T10:47:38;95836.25;;;16.63;83.55
56894;BME280;43392;50.078;13.704;2023-08-06T10:50:06;95826.88;;;16.73;83.40
56894;BME280;43392;50.078;13.704;2023-08-06T10:52:33;95831.72;;;16.79;82.68
56894;BME280;43392;50.078;13.704;2023-08-06T10:55:00;95826.28;;;16.79;82.14
56894;BME280;43392;50.078;13.704;2023-08-06T10:57:28;95825.19;;;16.80;81.67
56894;BME280;43392;50.078;13.704;2023-08-06T10:59:55;95815.59;;;16.83;82.38
56894;BME280;43392;50.078;13.704;2023-08-06T11:02:21;95807.97;;;16.88;81.75
56894;BME280;43392;50.078;13.704;2023-08-06T11:04:48;95812.94;;;16.98;81.51
56894;BME280;43392;50.078;13.704;2023-08-06T11:07:15;95815.50;;;17.07;81.80
56894;BME280;43392;50.078;13.704;2023-08-06T11:09:42;95815.94;;;17.09;80.77
56894;BME280;43392;50.078;13.704;2023-08-06T11:12:09;95813.13;;;17.05;79.92
56894;BME280;43392;50.078;13.704;2023-08-06T11:14:37;95810.34;;;17.02;79.70
56894;BME280;43392;50.078;13.704;2023-08-06T11:17:04;95803.00;;;17.02;79.41
56894;BME280;43392;50.078;13.704;2023-08-06T11:19:31;95809.88;;;17.00;78.88
56894;BME280;43392;50.078;13.704;2023-08-06T11:21:58;95808.22;;;16.95;78.28
56894;BME280;43392;50.078;13.704;2023-08-06T11:24:26;95808.97;;;16.96;78.22
56894;BME280;43392;50.078;13.704;2023-08-06T11:26:53;95809.78;;;16.96;77.61
56894;BME280;43392;50.078;13.704;2023-08-06T11:29:20;95805.94;;;16.97;78.12
56894;BME280;43392;50.078;13.704;2023-08-06T11:31:49;95804.13;;;17.01;78.38
56894;BME280;43392;50.078;13.704;2023-08-06T11:34:17;95803.53;;;17.08;78.13
56894;BME280;43392;50.078;13.704;2023-08-06T11:36:44;95805.47;;;17.07;76.97
56894;BME280;43392;50.078;13.704;2023-08-06T11:39:11;95803.88;;;17.06;76.47
56894;BME280;43392;50.078;13.704;2023-08-06T11:41:37;95809.72;;;17.08;76.72
56894;BME280;43392;50.078;13.704;2023-08-06T11:44:05;95815.84;;;17.05;76.31
56894;BME280;43392;50.078;13.704;2023-08-06T11:46:50;95805.34;;;17.04;76.25
56894;BME280;43392;50.078;13.704;2023-08-06T11:49:18;95798.91;;;17.08;76.38
56894;BME280;43392;50.078;13.704;2023-08-06T11:51:47;95798.56;;;17.10;76.01
56894;BME280;43392;50.078;13.704;2023-08-06T11:54:14;95797.88;;;17.13;75.57
56894;BME280;43392;50.078;13.704;2023-08-06T11:56:40;95805.19;;;17.12;75.70
56894;BME280;43392;50.078;13.704;2023-08-06T11:59:08;95802.50;;;17.12;75.62
56894;BME280;43392;50.078;13.704;2023-08-06T12:01:35;95797.88;;;17.13;75.88
56894;BME280;43392;50.078;13.704;2023-08-06T12:04:05;95801.91;;;17.19;75.29
56894;BME280;43392;50.078;13.704;2023-08-06T12:06:41;95797.06;;;17.12;74.93
56894;BME280;43392;50.078;13.704;2023-08-06T12:09:08;95787.13;;;17.16;75.81
56894;BME280;43392;50.078;13.704;2023-08-06T12:11:35;95794.22;;;17.21;75.61
56894;BME280;43392;50.078;13.704;2023-08-06T12:14:02;95795.09;;;17.25;75.79
56894;BME280;43392;50.078;13.704;2023-08-06T12:16:28;95792.59;;;17.32;75.62
56894;BME280;43392;50.078;13.704;2023-08-06T12:18:55;95784.31;;;17.41;75.57
56894;BME280;43392;50.078;13.704;2023-08-06T12:21:23;95790.00;;;17.51;75.88
56894;BME280;43392;50.078;13.704;2023-08-06T12:23:49;95788.03;;;17.64;75.69
56894;BME280;43392;50.078;13.704;2023-08-06T12:26:16;95786.47;;;17.78;75.17
56894;BME280;43392;50.078;13.704;2023-08-06T12:28:42;95787.44;;;17.86;74.77
56894;BME280;43392;50.078;13.704;2023-08-06T12:31:09;95784.56;;;17.95;74.11
56894;BME280;43392;50.078;13.704;2023-08-06T12:33:36;95778.09;;;17.99;73.76
56894;BME280;43392;50.078;13.704;2023-08-06T12:36:03;95782.53;;;18.07;73.64
56894;BME280;43392;50.078;13.704;2023-08-06T12:38:31;95785.41;;;18.14;72.38
56894;BME280;43392;50.078;13.704;2023-08-06T12:40:59;95786.19;;;18.30;72.14
56894;BME280;43392;50.078;13.704;2023-08-06T12:43:25;95781.44;;;18.43;70.62
56894;BME280;43392;50.078;13.704;2023-08-06T12:45:52;95773.91;;;18.52;70.04
56894;BME280;43392;50.078;13.704;2023-08-06T12:48:19;95781.41;;;18.59;69.25
56894;BME280;43392;50.078;13.704;2023-08-06T12:50:45;95778.38;;;18.60;68.57
56894;BME280;43392;50.078;13.704;2023-08-06T12:53:12;95783.50;;;18.65;68.62